Aperçu de la semaine du 4 mai 2026
En espérant que le dicton « Le trois fait le mois » ne s’applique pas pour le mois de mai […]
En espérant que le dicton « Le trois fait le mois » ne s’applique pas pour le mois de mai […]
Les plus récentes observations
| – | Température | Rafale | Pression | Humidité | Pluie | Valide à | Vent max | T.Max jour | T.Min jour | T. max hier | T. min hier |
|---|---|---|---|---|---|---|---|---|---|---|---|
| Chicoutimi | -0.7 °C | 0 kmh N | 1004.7 hPa | 87 % | 0.0 mm | 06:40 | 6.4 km/h à 01:00 | 0.6 °C à 00:00 | -2.9 °C à 05:32 | 9.4°C | 0.6°C |
| Métabetchouan | 0.6 °C | 3 kmh S | 1002.9 hPa | 74 % | 0.0 mm | 06:40 | 8.0 km/h à 01:26 | 1.6 °C à 00:00 | -0.4 °C à 05:22 | 6.5°C | -0.2°C |
| St-Bruno | -1.7 °C | 6 kmh ESE | 1003.6 hPa | 87 % | 0.0 mm | 06:40 | 9.7 km/h à 00:02 | -1.3 °C à 00:00 | -3.9 °C à 04:59 | 7.2°C | -1.3°C |
| St-Félicien | -2.2 °C | 5 kmh NW | 1004.2 hPa | 91 % | 0.0 mm | 06:40 | 6.4 km/h à 05:01 | -0.7 °C à 00:08 | -3.5 °C à 05:52 | 7.3°C | -1.6°C |
| La Baie | -0.2 °C | 5 kmh ONO | 1005.0 hPa | 84 % | 0.0 mm | 06:40 | 9.7 km/h à 00:01 | 1.1 °C à 00:00 | -2.5 °C à 05:43 | 7.1°C | 1.1°C |
| Dolbeau | -1.7 °C | 11 kmh ENE | 1004.6 hPa | 90 % | 0.0 mm | 06:40 | 11.3 km/h à 06:08 | -1.4 °C à 00:00 | -2.9 °C à 03:58 | 6.3°C | -1.6°C |
| St-Honoré | -3.8 °C | 0 kmh N | 1003.1 hPa | 98 % | 0.0 mm | 06:40 | 1.9 km/h à 01:13 | -3.0 °C à 00:00 | -6.6 °C à 05:31 | 7.7°C | -3.1°C |
| Laterrière | -1.8 °C -4 | 7 kmh N | 1004.5 hPa | 83 % | 0.0 mm | 06:40 | 24.1 km/h à 06:39 | -1.2 °C à 01:22 | -3.9 °C à 05:38 | 7.2°C | -1.4°C |
| Lac Bouchette | -2.8 °C | 5 kmh S | 1001.9 hPa | 92 % | 0.0 mm | 06:40 | 9.7 km/h à 01:07 | -2.4 °C à 00:24 | -4.4 °C à 04:15 | 5.4°C | -2.6°C |
| Cap au Leste | -0.8 °C | 10 kmh SSO | 1003.4 hPa | 83 % | 0.0 mm | 06:40 | 16.7 km/h à 00:23 | 1.6 °C à 00:00 | -1.7 °C à 05:15 | 6.1°C | 0.4°C |
| Larouche | -0.3 °C | 2 kmh E | 1004.9 hPa | 76 % | 0.0 mm | 06:40 | 2.3 km/h à 06:39 | -0.2 °C à 06:35 | -1.8 °C à 04:16 | 6.8°C | -0.6°C |
| La Chapelle | -2.9 °C | 2 kmh W | 1001.0 hPa | 90 % | 0.0 mm | 06:40 | 5.6 km/h à 02:09 | -2.8 °C à 00:01 | -6.9 °C à 04:51 | 2.3°C | -3.6°C |
| Le Norvégien | -1.8 °C | 3 kmh SSE | 1004.6 hPa | 85 % | 0.0 mm | 06:40 | 13.0 km/h à 01:28 | 0.1 °C à 01:30 | -2.8 °C à 05:39 | 5.9°C | -2.6°C |
| Sainte-Monique | -1.9 °C | 5 kmh ENE | 1003.8 hPa | 89 % | 0.0 mm | 06:40 | 5.6 km/h à 00:01 | -1.6 °C à 00:00 | -3.8 °C à 05:07 | 8.9°C | -1.7°C |
| L’Anse-St-Jean | -0.5 °C | 10 kmh N | 1004.4 hPa | 82 % | 0.0 mm | 06:40 | 14.8 km/h à 02:17 | -0.5 °C à 06:38 | -3.3 °C à 05:15 | 8.7°C | -1.7°C |
| St-Nazaire | -1.1 °C | 0 kmh N | 1002.9 hPa | 85 % | 0.0 mm | 06:40 | 0.0 km/h à 15:02 | 0.7 °C à 00:00 | -2.2 °C à 05:10 | 6.6°C | 0.3°C |
| Labrecque | -2.8 °C | 2 kmh O | 1004.7 hPa | 94 % | 0.0 mm | 06:40 | 3.7 km/h à 02:23 | -1.7 °C à 00:00 | -4.4 °C à 05:25 | 5.2°C | -1.7°C |
| Hébertville | -1.0 °C -3 | 13 kmh ESE | 1003.6 hPa | 86 % | 0.0 mm | 06:40 | 13.0 km/h à 03:11 | -1.0 °C à 06:38 | -2.9 °C à 04:46 | 5.9°C | -2.1°C |
| Girardville | -3.4 °C | 3 kmh S | 1003.1 hPa | 92 % | 0.0 mm | 06:40 | 3.7 km/h à 00:01 | -2.9 °C à 00:00 | -5.1 °C à 04:17 | 7.8°C | -3.0°C |
| Camping Alma | -1.2 °C -3 | 8 kmh ESE | 1003.9 hPa | 92 % | 0.0 mm | 06:40 | 9.7 km/h à 06:02 | -0.1 °C | -2.3 °C à 05:32 | 5.9°C | -0.3°C |
| Valinouet | -1.6 °C | 0 kmh N | 1006.0 hPa | 84 % | ND | 06:40 | 0.0 km/h à 06:07 | -1.4 °C à 00:55 | -1.8 °C à 00:22 | -0.3°C | -2.7°C |
| ÉcolAction | -1.0 °C | 3 kmh E | 1002.6 hPa | 88 % | 0.0 mm | 06:40 | 5.6 km/h à 00:25 | 0.1 °C à 00:05 | -3.1 °C à 05:52 | 7.6°C | -0.1°C |
| Chicoutimi Nord | -1.1 °C | 3 kmh OSO | 1003.0 hPa | 86 % | 06:40 | 13.0 km/h à 01:23 | 1.6 °C à 00:00 | -1.9 °C à 05:01 | ND | ND | |
| L’Or Piste Mont-Valin | ND | ND | ND | ND | ND | ND | ND km/h à ND | ND °C à ND | ND °C à ND | ND°C | ND°C |
| Camping Belley | ND | ND | ND | ND | ND | ND km/h à ND | ND °C à ND | ND °C à ND | ND°C | ND°C |
Mise à jour de samedi sur l’état des cours d’eau
MétéoChicoutimi poursuit la surveillance de l’état des cours d’eau dans la région. La situation s’est améliorée du côté de Saguenay, […]